Latest Weather Observations for Adelaide Airport

IDS60901

Issued at 10:35 am CDT Wednesday 26 November 2014 (issued every 10 minutes, with the page automatically refreshed every 10 minutes)

About weather observations | Map of Adelaide area stations | Latest observations for Adelaide area | Other Formats
Station Details ID: 023034 Name: ADELAIDE AIRPORT Lat: -34.95 Lon: 138.52 Height: 2.0 m
Data from the previous 72 hours. | See also: Recent months at Adelaide Airport
Date/Time
CDT
Tmp

°C
App
Tmp
°C
Dew
Point
°C
Rel
Hum
%
Delta-T

°C
Wind Press
QNH
hPa
Press
MSL
hPa
Rain
since
9 am
mm
Dir
 
Spd
km/h
Gust
km/h
Spd
kts
Gust
kts
26/10:30am 18.6 14.1 8.7 52 5.1 SW 22 32 12 17 1024.3 - 0.0
26/10:00am 18.6 15.4 6.7 46 5.9 SE 13 19 7 10 1024.1 - 0.0
26/09:30am 17.7 14.4 6.5 48 5.5 S 13 26 7 14 1024.2 - 0.0
26/09:00am 17.7 14.5 6.8 49 5.4 ESE 13 19 7 10 1024.1 1024.1 0.0
26/08:30am 16.5 13.1 7.5 55 4.5 SE 15 19 8 10 1023.7 - 0.0
26/08:00am 16.0 13.8 8.0 59 4.0 ESE 9 17 5 9 1023.5 - 0.0
26/07:30am 14.8 13.7 8.4 65 3.2 E 4 7 2 4 1023.3 - 0.0
26/07:00am 13.9 12.2 7.6 66 3.1 ENE 6 7 3 4 1022.9 - 0.0
26/06:30am 11.8 10.2 7.9 77 1.9 E 6 9 3 5 1022.7 - 0.0
26/06:00am 11.5 9.7 7.3 75 2.0 ESE 6 7 3 4 1022.2 1022.2 0.0
26/05:30am 11.2 9.3 7.4 77 1.8 SE 7 11 4 6 1022.0 - 0.0
26/05:00am 11.2 9.4 7.9 80 1.6 ESE 7 9 4 5 1021.8 - 0.0
26/04:30am 11.6 9.4 7.7 77 1.9 ESE 9 9 5 5 1021.7 - 0.0
26/04:00am 12.5 10.5 7.3 70 2.5 SE 7 9 4 5 1021.8 - 0.0
26/03:30am 12.5 10.2 7.3 70 2.5 SSE 9 11 5 6 1021.8 - 0.0
26/03:00am 12.7 10.4 7.3 69 2.6 SSE 9 11 5 6 1021.9 1021.9 0.0
26/02:30am 12.8 10.5 7.4 69 2.6 S 9 13 5 7 1022.0 - 0.0
26/02:00am 13.0 10.7 7.4 69 2.7 S 9 11 5 6 1022.0 - 0.0
26/01:30am 13.5 10.5 7.6 67 2.9 SE 13 17 7 9 1022.2 - 0.0
26/01:00am 13.5 10.1 7.6 67 2.9 SSE 15 17 8 9 1022.4 - 0.0
26/12:30am 13.7 10.3 7.8 67 2.9 SSE 15 20 8 11 1022.7 - 0.0
26/12:00am 13.8 10.5 8.1 68 2.8 SSE 15 20 8 11 1023.1 1023.1 0.0
 
Date/Time
CDT
Tmp

°C
App
Tmp
°C
Dew
Point
°C
Rel
Hum
%
Delta-T

°C
Wind Press
QNH
hPa
Press
MSL
hPa
Rain
since
9 am
mm
Dir
 
Spd
km/h
Gust
km/h
Spd
kts
Gust
kts
25/11:30pm 13.7 10.8 8.3 70 2.7 SE 13 20 7 11 1023.3 - 0.0
25/11:00pm 14.4 10.4 8.2 66 3.1 SSE 19 28 10 15 1023.3 - 0.0
25/10:30pm 14.6 10.6 8.2 65 3.2 SSE 19 26 10 14 1023.4 - 0.0
25/10:00pm 14.9 10.9 8.1 64 3.4 SE 19 26 10 14 1023.3 - 0.0
25/09:30pm 15.4 12.0 7.7 60 3.8 SE 15 19 8 10 1023.2 - 0.0
25/09:00pm 16.1 11.7 7.4 56 4.3 SE 20 26 11 14 1022.8 1022.8 0.0
25/08:30pm 17.0 12.8 7.4 53 4.8 SSE 19 26 10 14 1022.6 - 0.0
25/08:00pm 17.1 13.0 8.7 57 4.3 SSW 20 30 11 16 1022.4 - 0.0
25/07:30pm 17.5 13.4 8.7 56 4.5 SSW 20 30 11 16 1022.2 - 0.0
25/07:00pm 17.9 12.7 7.3 50 5.3 SSW 24 33 13 18 1021.9 - 0.0
25/06:30pm 18.6 12.9 6.5 45 6.0 SSW 26 33 14 18 1021.8 - 0.0
25/06:00pm 18.7 12.8 5.8 42 6.3 SW 26 35 14 19 1021.8 1021.8 0.0
25/05:30pm 19.1 13.6 5.9 42 6.5 SW 24 32 13 17 1021.7 - 0.0
25/05:00pm 18.8 14.0 5.7 42 6.4 SW 20 28 11 15 1021.9 - 0.0
25/04:30pm 18.6 13.8 7.5 48 5.6 SW 22 30 12 16 1022.1 - 0.0
25/04:00pm 18.7 14.3 7.4 47 5.7 SW 20 30 11 16 1022.3 - 0.0
25/03:30pm 18.6 13.3 6.7 46 5.9 WSW 24 32 13 17 1022.4 - 0.0
25/03:00pm 18.5 13.4 5.8 43 6.2 SW 22 30 12 16 1022.6 1022.6 0.0
25/02:30pm 18.9 14.4 6.1 43 6.3 SSW 19 28 10 15 1022.8 - 0.0
25/02:00pm 18.7 14.2 4.4 39 6.8 SW 17 24 9 13 1023.0 - 0.0
25/01:30pm 19.1 14.1 3.8 36 7.2 SW 19 28 10 15 1023.2 - 0.0
25/01:00pm 18.6 13.7 4.2 38 6.8 WSW 19 32 10 17 1023.2 - 0.0
25/12:30pm 18.5 13.6 5.0 41 6.5 SSW 20 30 11 16 1023.4 - 0.0
25/12:00pm 18.2 13.5 6.2 45 5.9 WSW 20 26 11 14 1023.4 1023.4 0.0
25/11:30am 18.7 14.0 7.7 48 5.6 SSW 22 33 12 18 1023.5 - 0.0
25/11:00am 17.9 13.2 7.6 51 5.2 SW 22 32 12 17 1023.6 - 0.0
25/10:30am 18.3 14.1 7.6 49 5.4 WSW 19 26 10 14 1023.6 - 0.0
25/10:00am 17.3 13.6 7.8 53 4.8 SW 17 22 9 12 1023.5 - 0.0
25/09:30am 17.2 12.9 6.9 50 5.1 SSW 19 24 10 13 1023.4 - 0.0
25/09:00am 16.9 14.5 8.5 57 4.3 SW 11 19 6 10 1023.2 1023.2 0.0
25/08:30am 15.7 14.1 8.6 62 3.6 NNW 7 11 4 6 1023.0 - 0.0
25/08:00am 15.3 13.3 8.8 65 3.3 N 9 13 5 7 1022.7 - 0.0
25/07:30am 14.8 14.7 9.3 69 2.8 CALM 0 4 0 2 1022.4 - 0.0
25/07:00am 14.8 13.2 8.7 67 3.1 NE 7 9 4 5 1022.2 - 0.0
25/06:30am 13.6 11.4 9.5 76 2.1 NE 11 13 6 7 1021.8 - 0.0
25/06:00am 13.0 11.0 8.8 75 2.1 NE 9 11 5 6 1021.3 1021.3 0.0
25/05:30am 12.5 10.4 8.2 75 2.1 NNE 9 11 5 6 1020.8 - 0.0
25/05:00am 12.1 11.7 8.4 78 1.8 CALM 0 0 0 0 1020.5 - 0.0
25/04:30am 11.7 11.2 7.8 77 1.9 CALM 0 0 0 0 1020.3 - 0.0
25/04:00am 12.1 11.5 7.6 74 2.2 CALM 0 0 0 0 1020.1 - 0.0
25/03:30am 12.9 11.2 7.6 70 2.6 E 6 7 3 4 1020.0 - 0.0
25/03:00am 13.1 11.1 7.3 68 2.8 ESE 7 11 4 6 1020.0 1020.0 0.0
25/02:30am 13.4 11.0 7.2 66 3.0 SE 9 11 5 6 1020.1 - 0.0
25/02:00am 14.3 11.2 7.4 63 3.4 SSE 13 17 7 9 1019.9 - 0.0
25/01:30am 15.1 9.9 5.6 53 4.5 SSW 22 32 12 17 1020.0 - 0.0
25/01:00am 15.3 9.5 6.4 55 4.3 SSW 26 35 14 19 1019.9 - 0.0
25/12:30am 15.5 10.4 5.9 52 4.6 SSW 22 32 12 17 1019.8 - 0.0
25/12:00am 15.6 12.2 6.0 53 4.6 S 13 22 7 12 1019.9 1019.9 0.0
 
Date/Time
CDT
Tmp

°C
App
Tmp
°C
Dew
Point
°C
Rel
Hum
%
Delta-T

°C
Wind Press
QNH
hPa
Press
MSL
hPa
Rain
since
9 am
mm
Dir
 
Spd
km/h
Gust
km/h
Spd
kts
Gust
kts
24/11:30pm 14.7 11.4 6.6 58 3.9 S 13 17 7 9 1019.9 - 0.0
24/11:00pm 14.5 10.9 6.6 59 3.8 S 15 22 8 12 1019.7 - 0.0
24/10:30pm 15.2 11.5 6.5 56 4.2 S 15 20 8 11 1019.5 - 0.0
24/10:00pm 15.4 10.8 6.5 55 4.3 S 20 28 11 15 1019.2 - 0.0
24/09:30pm 16.4 11.1 6.6 52 4.8 SSW 24 33 13 18 1018.6 - 0.0
24/09:00pm 16.7 10.6 6.5 51 5.0 SSW 28 35 15 19 1018.2 1018.2 0.0
24/08:30pm 16.9 11.2 6.8 51 5.0 SSW 26 35 14 19 1017.9 - 0.0
24/08:00pm 17.2 10.2 6.7 50 5.2 SW 33 46 18 25 1017.5 - 0.0
24/07:30pm 17.2 10.7 8.9 58 4.3 SW 33 44 18 24 1017.0 - 0.0
24/07:00pm 17.7 10.1 9.0 56 4.5 SW 39 50 21 27 1016.6 - 0.0
24/06:30pm 18.4 11.2 9.2 55 4.8 SW 37 48 20 26 1016.4 - 0.0
24/06:00pm 18.6 10.8 8.3 51 5.3 WSW 39 46 21 25 1016.2 1016.2 0.0
24/05:30pm 18.5 11.1 8.4 51 5.2 SW 37 48 20 26 1016.0 - 0.0
24/05:00pm 18.9 11.3 8.9 52 5.2 SW 39 48 21 26 1015.8 - 0.0
24/04:30pm 19.9 12.1 8.1 46 6.1 SW 39 50 21 27 1015.5 - 0.0
24/04:00pm 19.7 11.9 8.3 47 5.9 SW 39 48 21 26 1015.4 - 0.0
24/03:30pm 20.1 12.6 9.3 49 5.7 WSW 39 50 21 27 1015.2 - 0.0
24/03:00pm 20.4 13.9 10.2 52 5.5 SW 35 44 19 24 1015.1 1015.1 0.0
24/02:30pm 20.9 15.2 11.1 53 5.4 SW 32 39 17 21 1015.0 - 0.0
24/02:00pm 20.1 14.2 10.5 54 5.2 SW 32 41 17 22 1014.9 - 0.0
24/01:30pm 19.6 14.6 10.8 56 4.8 SW 28 35 15 19 1014.7 - 0.0
24/01:00pm 20.4 14.2 9.3 49 5.9 SW 32 41 17 22 1014.4 - 0.0
24/12:30pm 20.0 15.3 13.1 64 3.9 WSW 30 37 16 20 1014.3 - 0.0
24/12:00pm 20.5 16.2 13.3 63 4.1 WSW 28 33 15 18 1014.2 1014.2 0.0
24/11:30am 19.9 15.4 12.6 63 4.1 WSW 28 35 15 19 1013.9 - 0.0
24/11:00am 20.5 15.2 12.5 60 4.5 WSW 32 39 17 21 1013.6 - 0.0
24/10:30am 20.3 14.8 11.8 58 4.7 SW 32 41 17 22 1013.3 - 0.0
24/10:00am 21.0 17.0 11.9 56 5.1 SW 24 33 13 18 1013.0 - 0.0
24/09:30am 20.5 17.0 11.0 54 5.2 SSW 20 32 11 17 1012.8 - 0.0
24/09:00am 20.3 16.1 9.6 50 5.7 SSW 22 30 12 16 1012.3 1012.3 0.0
24/08:30am 19.0 15.3 10.0 56 4.8 SSW 20 26 11 14 1011.8 - 0.0
24/08:00am 18.8 15.6 9.8 56 4.8 S 17 24 9 13 1011.1 - 0.0
24/07:30am 18.2 14.7 10.8 62 4.0 S 20 28 11 15 1010.8 - 0.0
24/07:00am 17.8 12.7 10.5 62 3.9 S 28 37 15 20 1009.8 - 0.0
24/06:30am 17.7 12.7 10.8 64 3.7 S 28 35 15 19 1008.9 - 0.0
24/06:00am 18.6 14.5 11.3 62 4.0 SSW 24 32 13 17 1007.9 1007.9 0.0
24/05:30am 19.1 15.9 11.3 60 4.3 SSE 19 24 10 13 1007.0 - 0.0
24/05:00am 19.9 16.3 10.5 54 5.1 SSE 20 28 11 15 1006.4 - 0.0
24/04:30am 20.3 19.1 12.9 62 4.2 S 11 13 6 7 1006.1 - 0.0
24/04:00am 19.9 17.5 14.4 70 3.2 SW 20 26 11 14 1005.9 - 0.0
24/03:30am 22.2 21.4 14.0 59 4.8 WNW 11 15 6 8 1005.6 - 0.0
24/03:00am 23.2 20.8 12.6 51 6.1 NE 17 20 9 11 1005.5 1005.5 0.0
24/02:30am 23.6 19.3 12.0 48 6.6 NE 26 32 14 17 1005.8 - 0.0
24/02:00am 23.7 20.5 11.9 47 6.7 NE 20 32 11 17 1006.2 - 0.0
24/01:30am 20.5 19.8 13.1 62 4.2 NNE 9 22 5 12 1006.6 - 0.0
24/01:00am 21.1 19.9 12.9 59 4.7 SSW 11 13 6 7 1007.4 - 0.0
24/12:30am 23.2 20.7 11.2 46 6.7 NE 15 20 8 11 1007.5 - 0.0
24/12:00am 22.5 20.6 11.9 51 6.0 NE 13 15 7 8 1007.7 1007.7 0.0
 
Date/Time
CDT
Tmp

°C
App
Tmp
°C
Dew
Point
°C
Rel
Hum
%
Delta-T

°C
Wind Press
QNH
hPa
Press
MSL
hPa
Rain
since
9 am
mm
Dir
 
Spd
km/h
Gust
km/h
Spd
kts
Gust
kts
23/11:30pm 22.5 20.8 11.2 48 6.3 SSE 11 13 6 7 1008.0 - 0.0
23/11:00pm 22.9 20.6 11.7 49 6.3 ESE 15 19 8 10 1008.1 - 0.0
23/10:30pm 22.6 20.9 12.4 52 5.8 SE 13 17 7 9 1008.5 - 0.0
23/10:00pm 23.2 20.5 12.8 52 6.0 SSE 19 24 10 13 1008.4 - 0.0
23/09:30pm 24.0 21.7 12.9 50 6.4 S 17 19 9 10 1008.6 - 0.0
23/09:00pm 24.1 22.7 13.3 51 6.3 S 13 17 7 9 1008.4 1008.4 0.0
23/08:30pm 25.1 22.7 12.7 46 7.2 SSE 17 22 9 12 1008.2 - 0.0
23/08:00pm 26.1 24.3 12.2 42 8.0 S 13 15 7 8 1008.1 - 0.0
23/07:30pm 26.8 24.5 11.6 38 8.7 SE 15 19 8 10 1007.6 - 0.0
23/07:00pm 26.0 25.3 14.3 48 7.0 SE 11 17 6 9 1007.9 - 0.0
23/06:30pm 27.6 24.6 9.1 31 10.2 SE 15 20 8 11 1008.0 - 0.0
23/06:00pm 26.0 23.6 10.2 37 8.8 SSW 13 15 7 8 1008.9 1008.9 0.0
23/05:30pm 23.2 21.5 11.2 46 6.7 SW 11 13 6 7 1009.5 - 0.0
23/05:00pm 25.4 23.1 9.0 35 8.9 S 11 15 6 8 1009.6 - 0.0
23/04:30pm 24.7 22.0 5.4 29 9.8 S 9 13 5 7 1010.3 - 0.0
23/04:00pm 24.2 21.6 7.7 34 8.7 S 11 17 6 9 1010.7 - 0.0
23/03:30pm 22.7 20.0 7.5 37 7.9 SW 11 15 6 8 1011.7 - 0.0
23/03:00pm 21.5 18.9 12.1 55 5.3 W 17 19 9 10 1012.6 1012.6 0.0
23/02:30pm 22.1 18.3 11.1 49 6.1 W 22 28 12 15 1012.2 - 0.0
23/02:00pm 22.1 18.7 11.3 50 6.0 WSW 20 24 11 13 1011.7 - 0.0
23/01:30pm 22.1 19.6 12.2 53 5.6 SSW 17 22 9 12 1011.8 - 0.0
23/01:00pm 21.4 18.5 12.2 55 5.2 SW 19 26 10 14 1012.4 - 0.0
23/12:30pm 20.3 16.9 11.2 56 5.0 SW 20 26 11 14 1012.7 - 0.0
23/12:00pm 21.2 18.8 12.7 58 4.8 WSW 17 22 9 12 1012.9 1012.9 0.0
23/11:30am 20.1 17.9 12.2 60 4.4 SW 15 19 8 10 1012.7 - 0.0
23/11:00am 20.4 18.5 13.0 62 4.2 WSW 15 19 8 10 1012.4 - 0.0

Latest Capital City Observations: Canberra | Sydney | Melbourne | Brisbane | Adelaide | Perth | Hobart | Darwin

Other Formats:

Comma delimited format used in spreadsheet applications
http://www.bom.gov.au/fwo/IDS60901/IDS60901.94672.axf

JavaScript Object Notation format (JSON) in row-major order
http://www.bom.gov.au/fwo/IDS60901/IDS60901.94672.json